sensor_id;sensor_type;location;lat;lon;timestamp;P1;durP1;ratioP1;P2;durP2;ratioP2
29878;SDS011;16752;53.364;-1.488;2023-05-20T00:00:27;31.65;;;16.52;;
29878;SDS011;16752;53.364;-1.488;2023-05-20T00:03:12;26.70;;;15.75;;
29878;SDS011;16752;53.364;-1.488;2023-05-20T00:05:56;26.80;;;17.55;;
29878;SDS011;16752;53.364;-1.488;2023-05-20T00:08:44;33.95;;;17.83;;
29878;SDS011;16752;53.364;-1.488;2023-05-20T00:11:41;25.38;;;16.58;;
29878;SDS011;16752;53.364;-1.488;2023-05-20T00:14:28;36.00;;;17.85;;
29878;SDS011;16752;53.364;-1.488;2023-05-20T00:17:16;31.95;;;18.83;;
29878;SDS011;16752;53.364;-1.488;2023-05-20T00:20:00;29.02;;;18.25;;
29878;SDS011;16752;53.364;-1.488;2023-05-20T00:22:44;29.75;;;18.00;;
29878;SDS011;16752;53.364;-1.488;2023-05-20T00:25:28;30.40;;;17.55;;
29878;SDS011;16752;53.364;-1.488;2023-05-20T00:28:14;31.75;;;18.63;;
29878;SDS011;16752;53.364;-1.488;2023-05-20T00:30:59;32.08;;;16.85;;
29878;SDS011;16752;53.364;-1.488;2023-05-20T00:33:43;25.60;;;15.77;;
29878;SDS011;16752;53.364;-1.488;2023-05-20T00:36:27;27.35;;;14.38;;
29878;SDS011;16752;53.364;-1.488;2023-05-20T00:39:11;28.83;;;14.95;;
29878;SDS011;16752;53.364;-1.488;2023-05-20T00:41:55;27.83;;;16.40;;
29878;SDS011;16752;53.364;-1.488;2023-05-20T00:44:43;27.15;;;16.02;;
29878;SDS011;16752;53.364;-1.488;2023-05-20T00:47:28;23.90;;;14.18;;
29878;SDS011;16752;53.364;-1.488;2023-05-20T00:50:15;27.67;;;15.32;;
29878;SDS011;16752;53.364;-1.488;2023-05-20T00:53:13;24.65;;;15.00;;
29878;SDS011;16752;53.364;-1.488;2023-05-20T00:56:00;22.85;;;15.07;;
29878;SDS011;16752;53.364;-1.488;2023-05-20T00:58:44;27.35;;;15.82;;
29878;SDS011;16752;53.364;-1.488;2023-05-20T01:01:29;29.25;;;15.00;;
29878;SDS011;16752;53.364;-1.488;2023-05-20T01:04:13;24.88;;;15.57;;
29878;SDS011;16752;53.364;-1.488;2023-05-20T01:06:58;28.80;;;15.00;;
29878;SDS011;16752;53.364;-1.488;2023-05-20T01:09:45;33.20;;;15.52;;
29878;SDS011;16752;53.364;-1.488;2023-05-20T01:12:48;27.08;;;16.08;;
29878;SDS011;16752;53.364;-1.488;2023-05-20T01:15:35;31.60;;;15.88;;
29878;SDS011;16752;53.364;-1.488;2023-05-20T01:18:24;23.42;;;14.38;;
29878;SDS011;16752;53.364;-1.488;2023-05-20T01:21:14;24.45;;;15.45;;
29878;SDS011;16752;53.364;-1.488;2023-05-20T01:23:58;27.45;;;15.18;;
29878;SDS011;16752;53.364;-1.488;2023-05-20T01:26:44;25.40;;;14.15;;
29878;SDS011;16752;53.364;-1.488;2023-05-20T01:29:31;23.70;;;13.18;;
29878;SDS011;16752;53.364;-1.488;2023-05-20T01:32:20;25.23;;;13.45;;
29878;SDS011;16752;53.364;-1.488;2023-05-20T01:35:09;25.15;;;14.45;;
29878;SDS011;16752;53.364;-1.488;2023-05-20T01:38:02;25.50;;;13.55;;
29878;SDS011;16752;53.364;-1.488;2023-05-20T01:40:49;25.40;;;13.70;;
29878;SDS011;16752;53.364;-1.488;2023-05-20T01:43:35;24.30;;;14.68;;
29878;SDS011;16752;53.364;-1.488;2023-05-20T01:46:22;26.25;;;13.57;;
29878;SDS011;16752;53.364;-1.488;2023-05-20T01:49:07;25.50;;;12.32;;
29878;SDS011;16752;53.364;-1.488;2023-05-20T01:51:54;24.75;;;13.23;;
29878;SDS011;16752;53.364;-1.488;2023-05-20T01:54:39;20.35;;;12.38;;
29878;SDS011;16752;53.364;-1.488;2023-05-20T01:57:26;25.17;;;12.32;;
29878;SDS011;16752;53.364;-1.488;2023-05-20T02:00:12;20.55;;;11.65;;
29878;SDS011;16752;53.364;-1.488;2023-05-20T02:02:57;25.65;;;13.15;;
29878;SDS011;16752;53.364;-1.488;2023-05-20T02:05:42;20.67;;;11.52;;
29878;SDS011;16752;53.364;-1.488;2023-05-20T02:08:30;22.08;;;12.05;;
29878;SDS011;16752;53.364;-1.488;2023-05-20T02:11:15;20.38;;;12.85;;
29878;SDS011;16752;53.364;-1.488;2023-05-20T02:14:04;22.83;;;12.75;;
29878;SDS011;16752;53.364;-1.488;2023-05-20T02:16:49;20.05;;;12.27;;
29878;SDS011;16752;53.364;-1.488;2023-05-20T02:19:39;19.67;;;12.38;;
29878;SDS011;16752;53.364;-1.488;2023-05-20T02:22:31;18.50;;;11.30;;
29878;SDS011;16752;53.364;-1.488;2023-05-20T02:25:28;22.23;;;12.20;;
29878;SDS011;16752;53.364;-1.488;2023-05-20T02:28:30;23.23;;;13.55;;
29878;SDS011;16752;53.364;-1.488;2023-05-20T02:31:27;24.77;;;14.32;;
29878;SDS011;16752;53.364;-1.488;2023-05-20T02:37:10;25.98;;;12.75;;
29878;SDS011;16752;53.364;-1.488;2023-05-20T02:40:12;24.85;;;13.07;;
29878;SDS011;16752;53.364;-1.488;2023-05-20T02:43:04;23.20;;;13.98;;
29878;SDS011;16752;53.364;-1.488;2023-05-20T02:45:56;26.33;;;14.80;;
29878;SDS011;16752;53.364;-1.488;2023-05-20T02:48:46;22.45;;;13.35;;
29878;SDS011;16752;53.364;-1.488;2023-05-20T02:51:36;24.35;;;14.80;;
29878;SDS011;16752;53.364;-1.488;2023-05-20T02:54:35;25.77;;;15.07;;
29878;SDS011;16752;53.364;-1.488;2023-05-20T02:57:43;25.40;;;14.80;;
29878;SDS011;16752;53.364;-1.488;2023-05-20T03:00:38;23.63;;;14.98;;
29878;SDS011;16752;53.364;-1.488;2023-05-20T03:03:41;27.08;;;15.30;;
29878;SDS011;16752;53.364;-1.488;2023-05-20T03:06:49;24.38;;;15.55;;
29878;SDS011;16752;53.364;-1.488;2023-05-20T03:09:45;26.02;;;16.65;;
29878;SDS011;16752;53.364;-1.488;2023-05-20T03:12:36;30.25;;;15.75;;
29878;SDS011;16752;53.364;-1.488;2023-05-20T03:15:27;27.67;;;15.50;;
29878;SDS011;16752;53.364;-1.488;2023-05-20T03:18:28;32.63;;;17.70;;
29878;SDS011;16752;53.364;-1.488;2023-05-20T03:21:26;28.25;;;16.40;;
29878;SDS011;16752;53.364;-1.488;2023-05-20T03:24:25;33.75;;;17.65;;
29878;SDS011;16752;53.364;-1.488;2023-05-20T03:27:27;27.60;;;17.52;;
29878;SDS011;16752;53.364;-1.488;2023-05-20T03:30:37;30.30;;;16.38;;
29878;SDS011;16752;53.364;-1.488;2023-05-20T03:33:59;29.05;;;16.55;;
29878;SDS011;16752;53.364;-1.488;2023-05-20T03:36:52;27.30;;;15.77;;
29878;SDS011;16752;53.364;-1.488;2023-05-20T03:39:46;30.67;;;16.52;;
29878;SDS011;16752;53.364;-1.488;2023-05-20T03:42:31;25.73;;;16.55;;
29878;SDS011;16752;53.364;-1.488;2023-05-20T03:45:21;28.05;;;16.60;;
29878;SDS011;16752;53.364;-1.488;2023-05-20T03:48:31;29.08;;;18.45;;
29878;SDS011;16752;53.364;-1.488;2023-05-20T03:51:28;33.00;;;16.60;;
29878;SDS011;16752;53.364;-1.488;2023-05-20T03:54:35;29.13;;;17.75;;
29878;SDS011;16752;53.364;-1.488;2023-05-20T03:57:37;29.75;;;17.75;;
29878;SDS011;16752;53.364;-1.488;2023-05-20T04:00:22;37.67;;;17.52;;
29878;SDS011;16752;53.364;-1.488;2023-05-20T04:03:15;27.33;;;17.80;;
29878;SDS011;16752;53.364;-1.488;2023-05-20T04:14:10;34.22;;;19.60;;
29878;SDS011;16752;53.364;-1.488;2023-05-20T04:21:01;51.80;;;27.05;;
29878;SDS011;16752;53.364;-1.488;2023-05-20T05:00:29;45.72;;;23.55;;
29878;SDS011;16752;53.364;-1.488;2023-05-20T05:12:32;47.15;;;24.40;;
29878;SDS011;16752;53.364;-1.488;2023-05-20T05:15:26;43.08;;;23.20;;
29878;SDS011;16752;53.364;-1.488;2023-05-20T05:22:11;48.83;;;27.27;;
29878;SDS011;16752;53.364;-1.488;2023-05-20T05:25:32;56.10;;;30.83;;
29878;SDS011;16752;53.364;-1.488;2023-05-20T05:31:44;54.10;;;30.40;;
29878;SDS011;16752;53.364;-1.488;2023-05-20T05:34:49;58.15;;;31.05;;
29878;SDS011;16752;53.364;-1.488;2023-05-20T05:38:08;55.90;;;30.73;;
29878;SDS011;16752;53.364;-1.488;2023-05-20T05:40:48;51.33;;;29.15;;
29878;SDS011;16752;53.364;-1.488;2023-05-20T05:43:35;62.30;;;31.92;;
29878;SDS011;16752;53.364;-1.488;2023-05-20T05:46:19;59.70;;;29.85;;
29878;SDS011;16752;53.364;-1.488;2023-05-20T05:49:40;63.15;;;32.70;;
29878;SDS011;16752;53.364;-1.488;2023-05-20T05:52:37;49.40;;;28.45;;
29878;SDS011;16752;53.364;-1.488;2023-05-20T05:58:49;51.22;;;28.98;;
29878;SDS011;16752;53.364;-1.488;2023-05-20T06:12:50;55.85;;;30.00;;
29878;SDS011;16752;53.364;-1.488;2023-05-20T06:15:42;61.38;;;31.63;;
29878;SDS011;16752;53.364;-1.488;2023-05-20T06:18:28;54.55;;;29.50;;
29878;SDS011;16752;53.364;-1.488;2023-05-20T06:21:25;53.45;;;28.48;;
29878;SDS011;16752;53.364;-1.488;2023-05-20T06:26:53;55.25;;;29.75;;
29878;SDS011;16752;53.364;-1.488;2023-05-20T06:37:06;44.40;;;25.42;;
29878;SDS011;16752;53.364;-1.488;2023-05-20T06:39:50;45.67;;;28.25;;
29878;SDS011;16752;53.364;-1.488;2023-05-20T06:42:36;55.22;;;28.77;;
29878;SDS011;16752;53.364;-1.488;2023-05-20T06:45:30;57.70;;;30.85;;
29878;SDS011;16752;53.364;-1.488;2023-05-20T06:48:14;55.38;;;31.30;;
29878;SDS011;16752;53.364;-1.488;2023-05-20T06:51:07;58.90;;;32.88;;
29878;SDS011;16752;53.364;-1.488;2023-05-20T06:54:45;62.55;;;32.28;;
29878;SDS011;16752;53.364;-1.488;2023-05-20T07:01:05;62.45;;;30.42;;
29878;SDS011;16752;53.364;-1.488;2023-05-20T07:04:02;53.15;;;27.85;;
29878;SDS011;16752;53.364;-1.488;2023-05-20T07:06:49;49.08;;;27.17;;
29878;SDS011;16752;53.364;-1.488;2023-05-20T07:13:18;56.58;;;28.42;;
29878;SDS011;16752;53.364;-1.488;2023-05-20T07:25:08;60.08;;;30.73;;
29878;SDS011;16752;53.364;-1.488;2023-05-20T07:28:04;57.10;;;30.48;;
29878;SDS011;16752;53.364;-1.488;2023-05-20T07:30:59;58.65;;;30.83;;
29878;SDS011;16752;53.364;-1.488;2023-05-20T07:33:49;46.80;;;26.65;;
29878;SDS011;16752;53.364;-1.488;2023-05-20T07:36:33;53.00;;;27.80;;
29878;SDS011;16752;53.364;-1.488;2023-05-20T07:42:50;50.47;;;25.90;;
29878;SDS011;16752;53.364;-1.488;2023-05-20T07:45:35;50.67;;;28.83;;
29878;SDS011;16752;53.364;-1.488;2023-05-20T07:48:55;51.22;;;25.80;;
29878;SDS011;16752;53.364;-1.488;2023-05-20T07:51:39;45.83;;;26.48;;
29878;SDS011;16752;53.364;-1.488;2023-05-20T07:58:52;45.38;;;23.98;;
29878;SDS011;16752;53.364;-1.488;2023-05-20T08:05:30;40.65;;;21.67;;
29878;SDS011;16752;53.364;-1.488;2023-05-20T08:08:21;37.63;;;20.77;;
29878;SDS011;16752;53.364;-1.488;2023-05-20T08:11:06;37.58;;;22.30;;
29878;SDS011;16752;53.364;-1.488;2023-05-20T08:13:50;36.08;;;20.85;;
29878;SDS011;16752;53.364;-1.488;2023-05-20T08:16:46;37.72;;;20.33;;
29878;SDS011;16752;53.364;-1.488;2023-05-20T08:19:54;37.40;;;18.85;;
29878;SDS011;16752;53.364;-1.488;2023-05-20T08:29:26;30.85;;;17.25;;
29878;SDS011;16752;53.364;-1.488;2023-05-20T08:48:17;27.02;;;15.38;;
29878;SDS011;16752;53.364;-1.488;2023-05-20T08:51:22;33.88;;;17.60;;
29878;SDS011;16752;53.364;-1.488;2023-05-20T08:55:05;26.20;;;14.40;;
29878;SDS011;16752;53.364;-1.488;2023-05-20T08:58:37;23.27;;;13.07;;
29878;SDS011;16752;53.364;-1.488;2023-05-20T09:23:12;24.33;;;13.18;;
29878;SDS011;16752;53.364;-1.488;2023-05-20T09:26:27;23.25;;;9.98;;
29878;SDS011;16752;53.364;-1.488;2023-05-20T09:46:07;13.27;;;6.90;;
29878;SDS011;16752;53.364;-1.488;2023-05-20T09:48:57;10.60;;;6.28;;
29878;SDS011;16752;53.364;-1.488;2023-05-20T09:51:42;11.50;;;5.80;;
29878;SDS011;16752;53.364;-1.488;2023-05-20T09:54:28;13.18;;;5.88;;
29878;SDS011;16752;53.364;-1.488;2023-05-20T09:57:16;9.10;;;5.70;;
29878;SDS011;16752;53.364;-1.488;2023-05-20T10:00:04;14.43;;;5.97;;
29878;SDS011;16752;53.364;-1.488;2023-05-20T10:02:55;11.68;;;6.18;;
29878;SDS011;16752;53.364;-1.488;2023-05-20T10:12:04;8.70;;;5.13;;
29878;SDS011;16752;53.364;-1.488;2023-05-20T10:14:59;10.05;;;5.10;;
29878;SDS011;16752;53.364;-1.488;2023-05-20T10:21:20;12.05;;;7.30;;
29878;SDS011;16752;53.364;-1.488;2023-05-20T10:24:38;22.33;;;7.28;;
29878;SDS011;16752;53.364;-1.488;2023-05-20T10:27:29;9.45;;;6.15;;
29878;SDS011;16752;53.364;-1.488;2023-05-20T10:30:17;12.50;;;5.63;;
29878;SDS011;16752;53.364;-1.488;2023-05-20T10:33:16;13.43;;;6.38;;
29878;SDS011;16752;53.364;-1.488;2023-05-20T10:38:58;10.73;;;5.85;;
29878;SDS011;16752;53.364;-1.488;2023-05-20T10:49:23;15.02;;;6.63;;
29878;SDS011;16752;53.364;-1.488;2023-05-20T10:56:14;13.25;;;7.70;;
29878;SDS011;16752;53.364;-1.488;2023-05-20T11:17:18;10.05;;;5.65;;
29878;SDS011;16752;53.364;-1.488;2023-05-20T11:23:13;10.38;;;6.47;;
29878;SDS011;16752;53.364;-1.488;2023-05-20T11:29:20;13.02;;;6.95;;
29878;SDS011;16752;53.364;-1.488;2023-05-20T11:32:22;11.48;;;5.53;;
29878;SDS011;16752;53.364;-1.488;2023-05-20T11:37:57;13.27;;;8.15;;
29878;SDS011;16752;53.364;-1.488;2023-05-20T11:40:46;13.23;;;6.47;;
29878;SDS011;16752;53.364;-1.488;2023-05-20T11:43:35;8.20;;;6.47;;
29878;SDS011;16752;53.364;-1.488;2023-05-20T11:46:19;9.45;;;6.32;;
29878;SDS011;16752;53.364;-1.488;2023-05-20T11:49:06;9.18;;;6.10;;
29878;SDS011;16752;53.364;-1.488;2023-05-20T11:58:29;7.90;;;5.95;;
29878;SDS011;16752;53.364;-1.488;2023-05-20T12:01:14;14.02;;;7.60;;
29878;SDS011;16752;53.364;-1.488;2023-05-20T12:03:58;19.20;;;10.25;;
29878;SDS011;16752;53.364;-1.488;2023-05-20T12:06:42;14.82;;;8.38;;
29878;SDS011;16752;53.364;-1.488;2023-05-20T12:09:26;10.82;;;5.95;;
29878;SDS011;16752;53.364;-1.488;2023-05-20T12:12:10;11.18;;;5.68;;
29878;SDS011;16752;53.364;-1.488;2023-05-20T12:14:57;9.20;;;5.45;;
29878;SDS011;16752;53.364;-1.488;2023-05-20T12:24:40;13.18;;;5.57;;
29878;SDS011;16752;53.364;-1.488;2023-05-20T12:27:25;9.70;;;5.43;;
29878;SDS011;16752;53.364;-1.488;2023-05-20T12:30:09;9.10;;;5.45;;
29878;SDS011;16752;53.364;-1.488;2023-05-20T12:33:16;9.82;;;5.95;;
29878;SDS011;16752;53.364;-1.488;2023-05-20T12:36:03;9.73;;;5.72;;
29878;SDS011;16752;53.364;-1.488;2023-05-20T12:38:49;9.32;;;5.90;;
29878;SDS011;16752;53.364;-1.488;2023-05-20T12:44:57;11.88;;;5.90;;
29878;SDS011;16752;53.364;-1.488;2023-05-20T12:47:47;7.32;;;5.45;;
29878;SDS011;16752;53.364;-1.488;2023-05-20T12:54:16;6.75;;;5.18;;
29878;SDS011;16752;53.364;-1.488;2023-05-20T12:57:04;9.23;;;5.13;;
29878;SDS011;16752;53.364;-1.488;2023-05-20T12:59:51;8.52;;;5.55;;
29878;SDS011;16752;53.364;-1.488;2023-05-20T13:02:41;11.93;;;5.90;;
29878;SDS011;16752;53.364;-1.488;2023-05-20T13:05:26;7.95;;;4.95;;
29878;SDS011;16752;53.364;-1.488;2023-05-20T13:08:10;7.82;;;5.00;;
29878;SDS011;16752;53.364;-1.488;2023-05-20T13:10:55;7.75;;;4.93;;
29878;SDS011;16752;53.364;-1.488;2023-05-20T13:13:42;9.68;;;5.20;;
29878;SDS011;16752;53.364;-1.488;2023-05-20T13:16:32;8.50;;;5.18;;
29878;SDS011;16752;53.364;-1.488;2023-05-20T13:22:50;7.82;;;4.75;;
29878;SDS011;16752;53.364;-1.488;2023-05-20T13:43:22;7.97;;;5.15;;
29878;SDS011;16752;53.364;-1.488;2023-05-20T13:46:06;8.75;;;5.20;;
29878;SDS011;16752;53.364;-1.488;2023-05-20T13:48:53;9.90;;;4.68;;
29878;SDS011;16752;53.364;-1.488;2023-05-20T13:51:37;8.00;;;4.82;;
29878;SDS011;16752;53.364;-1.488;2023-05-20T13:54:21;6.50;;;4.90;;
29878;SDS011;16752;53.364;-1.488;2023-05-20T13:57:06;7.68;;;5.10;;
29878;SDS011;16752;53.364;-1.488;2023-05-20T13:59:53;6.25;;;4.93;;
29878;SDS011;16752;53.364;-1.488;2023-05-20T14:02:52;7.18;;;5.03;;
29878;SDS011;16752;53.364;-1.488;2023-05-20T14:05:45;8.75;;;5.47;;
29878;SDS011;16752;53.364;-1.488;2023-05-20T14:08:37;7.03;;;5.05;;
29878;SDS011;16752;53.364;-1.488;2023-05-20T14:11:24;10.13;;;4.80;;
29878;SDS011;16752;53.364;-1.488;2023-05-20T14:14:09;8.30;;;5.28;;
29878;SDS011;16752;53.364;-1.488;2023-05-20T14:16:59;7.80;;;4.90;;
29878;SDS011;16752;53.364;-1.488;2023-05-20T14:19:52;8.70;;;4.57;;
29878;SDS011;16752;53.364;-1.488;2023-05-20T14:22:39;7.05;;;5.38;;
29878;SDS011;16752;53.364;-1.488;2023-05-20T14:25:24;8.45;;;5.22;;
29878;SDS011;16752;53.364;-1.488;2023-05-20T14:30:49;7.78;;;5.72;;
29878;SDS011;16752;53.364;-1.488;2023-05-20T14:33:36;7.53;;;5.30;;
29878;SDS011;16752;53.364;-1.488;2023-05-20T14:36:21;7.03;;;5.40;;
29878;SDS011;16752;53.364;-1.488;2023-05-20T14:39:05;9.27;;;6.13;;
29878;SDS011;16752;53.364;-1.488;2023-05-20T14:41:49;5.40;;;4.82;;
29878;SDS011;16752;53.364;-1.488;2023-05-20T14:44:36;6.72;;;4.88;;
29878;SDS011;16752;53.364;-1.488;2023-05-20T14:47:29;8.32;;;5.45;;
29878;SDS011;16752;53.364;-1.488;2023-05-20T14:50:16;5.50;;;4.82;;
29878;SDS011;16752;53.364;-1.488;2023-05-20T14:53:29;8.18;;;5.55;;
29878;SDS011;16752;53.364;-1.488;2023-05-20T14:56:35;7.53;;;4.80;;
29878;SDS011;16752;53.364;-1.488;2023-05-20T14:59:25;7.80;;;5.18;;
29878;SDS011;16752;53.364;-1.488;2023-05-20T15:02:12;7.78;;;5.35;;
29878;SDS011;16752;53.364;-1.488;2023-05-20T15:04:56;7.57;;;4.90;;
29878;SDS011;16752;53.364;-1.488;2023-05-20T15:07:40;7.80;;;4.72;;
29878;SDS011;16752;53.364;-1.488;2023-05-20T15:10:25;6.40;;;4.60;;
29878;SDS011;16752;53.364;-1.488;2023-05-20T15:13:09;6.75;;;4.47;;
29878;SDS011;16752;53.364;-1.488;2023-05-20T15:15:53;7.40;;;4.60;;
29878;SDS011;16752;53.364;-1.488;2023-05-20T15:18:37;9.77;;;4.45;;
29878;SDS011;16752;53.364;-1.488;2023-05-20T15:21:22;5.65;;;4.13;;
29878;SDS011;16752;53.364;-1.488;2023-05-20T15:24:06;7.32;;;4.18;;
29878;SDS011;16752;53.364;-1.488;2023-05-20T15:26:50;6.90;;;4.40;;
29878;SDS011;16752;53.364;-1.488;2023-05-20T15:29:37;5.82;;;4.20;;
29878;SDS011;16752;53.364;-1.488;2023-05-20T15:32:21;7.15;;;4.57;;
29878;SDS011;16752;53.364;-1.488;2023-05-20T15:35:05;7.60;;;4.13;;
29878;SDS011;16752;53.364;-1.488;2023-05-20T15:37:49;7.65;;;4.40;;
29878;SDS011;16752;53.364;-1.488;2023-05-20T15:40:33;6.45;;;4.03;;
29878;SDS011;16752;53.364;-1.488;2023-05-20T15:43:23;5.22;;;3.70;;
29878;SDS011;16752;53.364;-1.488;2023-05-20T15:46:07;4.32;;;3.72;;
29878;SDS011;16752;53.364;-1.488;2023-05-20T15:48:57;6.28;;;4.07;;
29878;SDS011;16752;53.364;-1.488;2023-05-20T15:51:41;5.82;;;3.78;;
29878;SDS011;16752;53.364;-1.488;2023-05-20T15:54:34;6.00;;;3.58;;
29878;SDS011;16752;53.364;-1.488;2023-05-20T15:57:18;7.78;;;4.40;;
29878;SDS011;16752;53.364;-1.488;2023-05-20T16:00:03;3.70;;;3.05;;
29878;SDS011;16752;53.364;-1.488;2023-05-20T16:02:52;6.20;;;3.25;;
29878;SDS011;16752;53.364;-1.488;2023-05-20T16:05:37;6.30;;;3.70;;
29878;SDS011;16752;53.364;-1.488;2023-05-20T16:08:21;5.45;;;3.53;;
29878;SDS011;16752;53.364;-1.488;2023-05-20T16:11:06;8.70;;;3.75;;
29878;SDS011;16752;53.364;-1.488;2023-05-20T16:13:51;5.28;;;3.38;;
29878;SDS011;16752;53.364;-1.488;2023-05-20T16:16:43;4.40;;;2.92;;
29878;SDS011;16752;53.364;-1.488;2023-05-20T16:19:27;5.80;;;3.22;;
29878;SDS011;16752;53.364;-1.488;2023-05-20T16:22:14;6.75;;;3.28;;
29878;SDS011;16752;53.364;-1.488;2023-05-20T16:28:02;6.28;;;3.42;;
29878;SDS011;16752;53.364;-1.488;2023-05-20T16:30:46;4.15;;;2.55;;
29878;SDS011;16752;53.364;-1.488;2023-05-20T16:33:30;6.15;;;3.60;;
29878;SDS011;16752;53.364;-1.488;2023-05-20T16:36:14;8.07;;;3.17;;
29878;SDS011;16752;53.364;-1.488;2023-05-20T16:39:06;5.45;;;3.55;;
29878;SDS011;16752;53.364;-1.488;2023-05-20T16:41:51;7.95;;;3.78;;
29878;SDS011;16752;53.364;-1.488;2023-05-20T16:44:35;7.53;;;3.22;;
29878;SDS011;16752;53.364;-1.488;2023-05-20T16:47:21;13.73;;;4.60;;
29878;SDS011;16752;53.364;-1.488;2023-05-20T16:50:05;5.30;;;2.72;;
29878;SDS011;16752;53.364;-1.488;2023-05-20T16:52:50;6.45;;;3.45;;
29878;SDS011;16752;53.364;-1.488;2023-05-20T16:55:53;4.97;;;3.08;;
29878;SDS011;16752;53.364;-1.488;2023-05-20T16:58:37;7.97;;;3.33;;
29878;SDS011;16752;53.364;-1.488;2023-05-20T17:01:21;7.15;;;3.28;;
29878;SDS011;16752;53.364;-1.488;2023-05-20T17:04:05;6.35;;;2.70;;
29878;SDS011;16752;53.364;-1.488;2023-05-20T17:06:49;8.57;;;3.40;;
29878;SDS011;16752;53.364;-1.488;2023-05-20T17:09:34;6.28;;;3.10;;
29878;SDS011;16752;53.364;-1.488;2023-05-20T17:12:19;7.30;;;2.67;;
29878;SDS011;16752;53.364;-1.488;2023-05-20T17:15:03;6.55;;;2.95;;
29878;SDS011;16752;53.364;-1.488;2023-05-20T17:17:49;5.35;;;3.13;;
29878;SDS011;16752;53.364;-1.488;2023-05-20T17:20:33;6.32;;;3.13;;
29878;SDS011;16752;53.364;-1.488;2023-05-20T17:23:23;4.70;;;2.55;;
29878;SDS011;16752;53.364;-1.488;2023-05-20T17:26:08;4.20;;;2.58;;
29878;SDS011;16752;53.364;-1.488;2023-05-20T17:28:52;7.60;;;2.80;;
29878;SDS011;16752;53.364;-1.488;2023-05-20T17:31:36;4.82;;;2.80;;
29878;SDS011;16752;53.364;-1.488;2023-05-20T17:34:20;5.22;;;2.40;;
29878;SDS011;16752;53.364;-1.488;2023-05-20T17:37:04;6.70;;;2.40;;
29878;SDS011;16752;53.364;-1.488;2023-05-20T17:39:48;3.22;;;1.85;;
29878;SDS011;16752;53.364;-1.488;2023-05-20T17:42:32;5.20;;;1.92;;
29878;SDS011;16752;53.364;-1.488;2023-05-20T17:45:16;4.30;;;2.17;;
29878;SDS011;16752;53.364;-1.488;2023-05-20T17:48:00;5.13;;;2.40;;
29878;SDS011;16752;53.364;-1.488;2023-05-20T17:50:49;4.53;;;2.45;;
29878;SDS011;16752;53.364;-1.488;2023-05-20T17:53:33;4.68;;;2.28;;
29878;SDS011;16752;53.364;-1.488;2023-05-20T17:56:17;5.57;;;2.30;;
29878;SDS011;16752;53.364;-1.488;2023-05-20T17:59:01;7.05;;;3.05;;
29878;SDS011;16752;53.364;-1.488;2023-05-20T18:01:48;6.82;;;3.03;;
29878;SDS011;16752;53.364;-1.488;2023-05-20T18:04:35;4.13;;;2.53;;
29878;SDS011;16752;53.364;-1.488;2023-05-20T18:07:40;5.13;;;3.00;;
29878;SDS011;16752;53.364;-1.488;2023-05-20T18:10:24;2.88;;;2.00;;
29878;SDS011;16752;53.364;-1.488;2023-05-20T18:13:08;5.00;;;2.65;;
29878;SDS011;16752;53.364;-1.488;2023-05-20T18:15:52;7.03;;;2.78;;
29878;SDS011;16752;53.364;-1.488;2023-05-20T18:18:36;6.72;;;3.45;;
29878;SDS011;16752;53.364;-1.488;2023-05-20T18:21:20;8.15;;;3.40;;
29878;SDS011;16752;53.364;-1.488;2023-05-20T18:24:08;5.35;;;2.67;;
29878;SDS011;16752;53.364;-1.488;2023-05-20T18:26:54;5.65;;;3.15;;
29878;SDS011;16752;53.364;-1.488;2023-05-20T18:29:38;4.32;;;2.45;;
29878;SDS011;16752;53.364;-1.488;2023-05-20T18:32:22;4.30;;;2.13;;
29878;SDS011;16752;53.364;-1.488;2023-05-20T18:35:10;3.92;;;2.25;;
29878;SDS011;16752;53.364;-1.488;2023-05-20T18:37:54;5.07;;;1.90;;
29878;SDS011;16752;53.364;-1.488;2023-05-20T18:40:38;3.58;;;1.90;;
29878;SDS011;16752;53.364;-1.488;2023-05-20T18:43:22;4.07;;;2.03;;
29878;SDS011;16752;53.364;-1.488;2023-05-20T18:46:06;5.15;;;2.17;;
29878;SDS011;16752;53.364;-1.488;2023-05-20T18:48:50;6.13;;;2.05;;
29878;SDS011;16752;53.364;-1.488;2023-05-20T18:51:35;7.80;;;2.42;;
29878;SDS011;16752;53.364;-1.488;2023-05-20T18:54:25;6.05;;;2.53;;
29878;SDS011;16752;53.364;-1.488;2023-05-20T18:57:09;3.20;;;2.08;;
29878;SDS011;16752;53.364;-1.488;2023-05-20T18:59:53;3.72;;;2.17;;
29878;SDS011;16752;53.364;-1.488;2023-05-20T19:02:40;5.45;;;2.13;;
29878;SDS011;16752;53.364;-1.488;2023-05-20T19:05:24;8.48;;;2.20;;
29878;SDS011;16752;53.364;-1.488;2023-05-20T19:08:08;4.30;;;2.65;;
29878;SDS011;16752;53.364;-1.488;2023-05-20T19:10:52;5.05;;;2.90;;
29878;SDS011;16752;53.364;-1.488;2023-05-20T19:13:36;6.20;;;2.78;;
29878;SDS011;16752;53.364;-1.488;2023-05-20T19:16:20;2.88;;;2.58;;
29878;SDS011;16752;53.364;-1.488;2023-05-20T19:19:04;5.82;;;2.67;;
29878;SDS011;16752;53.364;-1.488;2023-05-20T19:21:51;3.47;;;2.22;;
29878;SDS011;16752;53.364;-1.488;2023-05-20T19:24:35;3.95;;;2.63;;
29878;SDS011;16752;53.364;-1.488;2023-05-20T19:27:25;5.78;;;1.98;;
29878;SDS011;16752;53.364;-1.488;2023-05-20T19:30:12;4.60;;;2.40;;
29878;SDS011;16752;53.364;-1.488;2023-05-20T19:32:58;4.57;;;2.20;;
29878;SDS011;16752;53.364;-1.488;2023-05-20T19:35:44;4.90;;;2.20;;
29878;SDS011;16752;53.364;-1.488;2023-05-20T19:38:28;3.83;;;1.85;;
29878;SDS011;16752;53.364;-1.488;2023-05-20T19:41:12;5.35;;;2.70;;
29878;SDS011;16752;53.364;-1.488;2023-05-20T19:43:56;5.38;;;2.20;;
29878;SDS011;16752;53.364;-1.488;2023-05-20T19:46:40;3.70;;;2.10;;
29878;SDS011;16752;53.364;-1.488;2023-05-20T19:49:25;6.72;;;2.75;;
29878;SDS011;16752;53.364;-1.488;2023-05-20T19:52:12;3.95;;;2.50;;
29878;SDS011;16752;53.364;-1.488;2023-05-20T19:54:55;5.82;;;2.20;;
29878;SDS011;16752;53.364;-1.488;2023-05-20T19:57:40;3.65;;;2.08;;
29878;SDS011;16752;53.364;-1.488;2023-05-20T20:00:24;4.05;;;2.05;;
29878;SDS011;16752;53.364;-1.488;2023-05-20T20:03:30;3.80;;;2.50;;
29878;SDS011;16752;53.364;-1.488;2023-05-20T20:06:14;5.30;;;2.78;;
29878;SDS011;16752;53.364;-1.488;2023-05-20T20:08:57;6.25;;;3.47;;
29878;SDS011;16752;53.364;-1.488;2023-05-20T20:11:41;5.68;;;3.10;;
29878;SDS011;16752;53.364;-1.488;2023-05-20T20:14:29;5.75;;;3.00;;
29878;SDS011;16752;53.364;-1.488;2023-05-20T20:17:13;4.47;;;2.65;;
29878;SDS011;16752;53.364;-1.488;2023-05-20T20:19:58;6.10;;;3.28;;
29878;SDS011;16752;53.364;-1.488;2023-05-20T20:22:44;8.30;;;3.30;;
29878;SDS011;16752;53.364;-1.488;2023-05-20T20:25:31;7.35;;;3.42;;
29878;SDS011;16752;53.364;-1.488;2023-05-20T20:28:17;6.20;;;3.38;;
29878;SDS011;16752;53.364;-1.488;2023-05-20T20:31:01;8.77;;;4.05;;
29878;SDS011;16752;53.364;-1.488;2023-05-20T20:33:45;6.72;;;2.53;;
29878;SDS011;16752;53.364;-1.488;2023-05-20T20:36:30;8.15;;;3.78;;
29878;SDS011;16752;53.364;-1.488;2023-05-20T20:39:15;6.00;;;2.70;;
29878;SDS011;16752;53.364;-1.488;2023-05-20T20:42:02;5.15;;;3.33;;
29878;SDS011;16752;53.364;-1.488;2023-05-20T20:44:46;8.50;;;4.05;;
29878;SDS011;16752;53.364;-1.488;2023-05-20T20:47:31;8.18;;;3.28;;
29878;SDS011;16752;53.364;-1.488;2023-05-20T20:50:15;7.63;;;4.20;;
29878;SDS011;16752;53.364;-1.488;2023-05-20T20:52:59;5.22;;;3.15;;
29878;SDS011;16752;53.364;-1.488;2023-05-20T20:55:44;6.90;;;3.47;;
29878;SDS011;16752;53.364;-1.488;2023-05-20T20:58:31;7.60;;;3.58;;
29878;SDS011;16752;53.364;-1.488;2023-05-20T21:01:17;8.75;;;3.58;;
29878;SDS011;16752;53.364;-1.488;2023-05-20T21:04:02;5.13;;;3.42;;
29878;SDS011;16752;53.364;-1.488;2023-05-20T21:06:46;6.28;;;3.47;;
29878;SDS011;16752;53.364;-1.488;2023-05-20T21:09:30;5.63;;;3.35;;
29878;SDS011;16752;53.364;-1.488;2023-05-20T21:12:21;5.82;;;3.38;;